Main page
METAR-TAF:

METAR-TAF

Airports :

Brussels Airport. Zaventem

Brussels, Belgium

latitude: 50-54N, longitude: 004-32E, elevation: 55 m

Current weather observation

The report was made 24 minutes ago, at 19:50 UTC
Wind 1 kt from variable directions
Temperature 15°C
Humidity 88%
Pressure 1012 hPa
Visibility 10 km or more
Few clouds at a height of 1000 ft
rain

METAR: EBBR 251950Z VRB01KT 9999 RA FEW010 15/13 Q1012 TEMPO 4000 RA BECMG NSW

Time: 22:14 (20:14 UTC)

Forecast

The report was made 3 hours and 14 minutes ago, at 17:00 UTC
Forecast valid from 25 at 18 UTC to 26 at 24 UTC
Wind 6 kt from the South/Southwest
Visibility 10 km or more
Scattered clouds at a height of 3500 ft
Temporary
from 25 at 18 UTC to 25 at 22 UTC
Visibility: 4000 m
rain showers

TAF: EBBR 251700Z 2518/2624 21006KT 9999 SCT035 TEMPO 2518/2522 4000 SHRA

Weather observations and forecasts of more than 4000 airports (METAR and TAF reports).

The available stations are represented by yellow and red dots on the map.

Hover mouse over dot to see the name of the station.

Then click to see weather observations and forecasts.

To change the map : click on the green buttons with a black cross to zoom in, on the green button with a dash to zoom out, or on the green arrows for adjacent maps.


METAR-TAF: